createdAt,value
2023-02-22T00:01:35.668Z,4.58
2023-02-22T00:04:39.908Z,4.54
2023-02-22T00:07:42.405Z,4.51
2023-02-22T00:10:45.424Z,4.54
2023-02-22T00:13:50.640Z,4.50
2023-02-22T00:16:53.014Z,4.50
2023-02-22T00:19:55.240Z,4.43
2023-02-22T00:22:57.560Z,4.40
2023-02-22T00:26:01.357Z,4.33
2023-02-22T00:29:03.721Z,4.34
2023-02-22T00:32:06.203Z,4.32
2023-02-22T00:35:09.000Z,4.30
2023-02-22T00:38:12.099Z,4.22
2023-02-22T00:41:15.226Z,4.16
2023-02-22T00:44:17.642Z,4.13
2023-02-22T00:47:20.033Z,4.13
2023-02-22T00:50:24.957Z,4.13
2023-02-22T00:53:27.436Z,4.08
2023-02-22T00:56:29.778Z,4.05
2023-02-22T00:59:32.166Z,4.08
2023-02-22T01:02:34.760Z,4.08
2023-02-22T01:05:38.481Z,4.06
2023-02-22T01:08:45.267Z,4.07
2023-02-22T01:11:49.082Z,4.00
2023-02-22T01:14:51.622Z,3.95
2023-02-22T01:17:55.091Z,3.96
2023-02-22T01:20:57.516Z,3.93
2023-02-22T01:24:00.022Z,3.90
2023-02-22T01:27:02.816Z,3.84
2023-02-22T01:30:08.838Z,3.82
2023-02-22T01:33:13.026Z,3.79
2023-02-22T01:36:15.299Z,3.72
2023-02-22T01:39:18.200Z,3.70
2023-02-22T01:42:20.571Z,3.71
2023-02-22T01:45:35.005Z,3.67
2023-02-22T01:48:45.297Z,3.66
2023-02-22T01:51:52.002Z,3.64
2023-02-22T01:54:58.383Z,3.67
2023-02-22T01:58:01.664Z,3.57
2023-02-22T02:01:05.701Z,3.50
2023-02-22T02:04:20.935Z,3.49
2023-02-22T02:07:25.066Z,3.46
2023-02-22T02:10:28.511Z,3.50
2023-02-22T02:13:30.961Z,3.49
2023-02-22T02:16:46.439Z,3.43
2023-02-22T02:20:11.824Z,3.36
2023-02-22T02:23:52.629Z,3.40
2023-02-22T02:27:13.925Z,3.45
2023-02-22T02:30:25.510Z,3.46
2023-02-22T02:33:35.326Z,3.44
2023-02-22T02:36:47.696Z,3.41
2023-02-22T02:39:55.905Z,3.43
2023-02-22T02:43:05.333Z,3.38
2023-02-22T02:46:15.513Z,3.39
2023-02-22T02:49:27.683Z,3.38
2023-02-22T02:52:33.495Z,3.33
2023-02-22T02:55:37.313Z,3.24
2023-02-22T02:58:46.353Z,3.18
2023-02-22T03:02:07.670Z,3.07
2023-02-22T03:05:28.162Z,3.02
2023-02-22T03:09:01.652Z,2.97
2023-02-22T03:12:22.284Z,2.96
2023-02-22T03:16:13.026Z,2.96
2023-02-22T03:19:45.977Z,2.87
2023-02-22T03:22:57.973Z,2.76
2023-02-22T03:26:13.499Z,2.79
2023-02-22T03:29:18.852Z,2.69
2023-02-22T03:32:25.571Z,2.54
2023-02-22T03:35:35.581Z,2.51
2023-02-22T03:38:41.157Z,2.48
2023-02-22T03:41:51.595Z,2.45
2023-02-22T03:44:55.412Z,2.36
2023-02-22T03:48:05.024Z,2.33
2023-02-22T03:51:07.911Z,2.26
2023-02-22T03:54:16.589Z,2.32
2023-02-22T03:57:29.516Z,2.26
2023-02-22T04:00:35.150Z,2.30
2023-02-22T04:03:37.466Z,2.27
2023-02-22T04:06:39.861Z,2.30
2023-02-22T04:09:42.719Z,2.26
2023-02-22T04:12:45.457Z,2.22
2023-02-22T04:15:47.894Z,2.26
2023-02-22T04:18:50.369Z,2.29
2023-02-22T04:21:52.999Z,2.25
2023-02-22T04:24:55.357Z,2.25
2023-02-22T04:27:58.022Z,2.25
2023-02-22T04:31:00.974Z,2.18
2023-02-22T04:34:04.134Z,2.21
2023-02-22T04:37:07.878Z,2.18
2023-02-22T04:40:11.776Z,2.18
2023-02-22T04:43:14.101Z,2.13
2023-02-22T04:46:16.715Z,2.11
2023-02-22T04:49:19.189Z,2.05
2023-02-22T04:52:21.933Z,2.03
2023-02-22T04:55:24.367Z,2.04
2023-02-22T04:58:26.851Z,1.99
2023-02-22T05:01:33.978Z,1.94
2023-02-22T05:04:38.890Z,1.94
2023-02-22T05:07:41.272Z,1.96
2023-02-22T05:10:43.888Z,1.93
2023-02-22T05:13:46.942Z,1.89
2023-02-22T05:16:50.167Z,1.89
2023-02-22T05:19:52.996Z,1.89
2023-02-22T05:23:00.246Z,1.82
2023-02-22T05:26:02.584Z,1.78
2023-02-22T05:29:05.308Z,1.75
2023-02-22T05:32:07.735Z,1.74
2023-02-22T05:35:10.059Z,1.69
2023-02-22T05:38:15.547Z,1.70
2023-02-22T05:41:18.583Z,1.67
2023-02-22T05:44:21.183Z,1.65
2023-02-22T05:47:23.652Z,1.65
2023-02-22T05:50:27.190Z,1.68
2023-02-22T05:53:29.694Z,1.66
2023-02-22T05:56:32.097Z,1.66
2023-02-22T05:59:34.422Z,1.71
2023-02-22T06:02:37.060Z,1.74
2023-02-22T06:05:39.625Z,1.77
2023-02-22T06:08:42.037Z,1.83
2023-02-22T06:11:44.459Z,1.92
2023-02-22T06:14:46.840Z,1.91
2023-02-22T06:17:49.288Z,1.96
2023-02-22T06:20:54.466Z,2.02
2023-02-22T06:23:57.096Z,2.03
2023-02-22T06:27:01.727Z,2.09
2023-02-22T06:30:05.401Z,2.16
2023-02-22T06:33:08.311Z,2.16
2023-02-22T06:36:10.959Z,2.16
2023-02-22T06:39:13.338Z,2.22
2023-02-22T06:42:15.715Z,2.32
2023-02-22T06:45:18.729Z,2.39
2023-02-22T06:48:21.114Z,2.47
2023-02-22T06:51:24.120Z,2.57
2023-02-22T06:54:27.425Z,2.68
2023-02-22T06:57:29.764Z,2.81
2023-02-22T07:00:33.059Z,2.95
2023-02-22T07:03:36.437Z,3.09
2023-02-22T07:06:38.761Z,3.23
2023-02-22T07:09:41.115Z,3.38
2023-02-22T07:12:43.539Z,3.56
2023-02-22T07:15:45.940Z,3.71
2023-02-22T07:18:48.267Z,3.97
2023-02-22T07:21:51.129Z,4.50
2023-02-22T07:24:55.878Z,5.21
2023-02-22T07:27:59.865Z,6.21
2023-02-22T07:31:02.485Z,7.10
2023-02-22T07:34:04.896Z,7.94
2023-02-22T07:37:07.282Z,8.90
2023-02-22T07:40:10.429Z,9.04
2023-02-22T07:43:31.886Z,9.31
2023-02-22T07:46:34.277Z,10.03
2023-02-22T07:49:37.315Z,10.59
2023-02-22T07:52:39.703Z,10.58
2023-02-22T07:55:42.034Z,11.19
2023-02-22T07:58:44.498Z,11.63
2023-02-22T08:01:50.194Z,12.29
2023-02-22T08:04:52.506Z,12.51
2023-02-22T08:07:55.020Z,12.60
2023-02-22T08:10:57.488Z,12.96
2023-02-22T08:13:59.964Z,13.66
2023-02-22T08:17:02.477Z,12.96
2023-02-22T08:20:05.308Z,13.30
2023-02-22T08:23:08.868Z,13.45
2023-02-22T08:26:15.847Z,13.83
2023-02-22T08:29:18.158Z,14.41
2023-02-22T08:32:20.972Z,15.02
2023-02-22T08:35:23.580Z,14.21
2023-02-22T08:38:29.391Z,15.62
2023-02-22T08:41:31.758Z,15.36
2023-02-22T08:44:34.178Z,15.18
2023-02-22T08:47:36.907Z,15.20
2023-02-22T08:50:41.599Z,15.61
2023-02-22T08:53:44.597Z,15.66
2023-02-22T08:56:46.895Z,15.69
2023-02-22T08:59:49.343Z,15.49
2023-02-22T09:02:53.224Z,15.80
2023-02-22T09:05:56.301Z,15.81
2023-02-22T09:08:58.808Z,16.22
2023-02-22T09:12:01.159Z,15.71
2023-02-22T09:15:04.121Z,16.24
2023-02-22T09:18:08.734Z,16.45
2023-02-22T09:21:12.047Z,16.91
2023-02-22T09:24:14.912Z,16.22
2023-02-22T09:27:20.310Z,15.96
2023-02-22T09:30:25.284Z,16.07
2023-02-22T09:33:27.589Z,16.10
2023-02-22T09:36:30.058Z,16.39
2023-02-22T09:39:37.942Z,17.15
2023-02-22T09:42:47.172Z,17.58
2023-02-22T09:46:19.685Z,16.80
2023-02-22T09:49:34.787Z,17.13
2023-02-22T09:52:41.711Z,17.13
2023-02-22T09:55:51.239Z,17.64
2023-02-22T09:58:59.609Z,17.86
2023-02-22T10:02:30.503Z,18.10
2023-02-22T10:05:43.016Z,19.12
2023-02-22T10:08:45.656Z,19.64
2023-02-22T10:12:15.301Z,19.10
2023-02-22T10:15:32.786Z,19.83
2023-02-22T10:19:01.866Z,20.47
2023-02-22T10:22:07.905Z,20.46
2023-02-22T10:25:26.059Z,20.51
2023-02-22T10:28:38.322Z,20.40
2023-02-22T10:31:47.328Z,19.21
2023-02-22T10:34:54.076Z,21.09
2023-02-22T10:38:17.446Z,22.14
2023-02-22T10:41:28.040Z,22.42
2023-02-22T10:44:30.853Z,21.64
2023-02-22T10:47:34.152Z,21.88
2023-02-22T10:50:41.018Z,22.68
2023-02-22T10:53:43.417Z,22.43
2023-02-22T10:56:52.458Z,21.79
2023-02-22T10:59:57.763Z,21.48
2023-02-22T11:03:02.580Z,21.24
2023-02-22T11:06:19.588Z,21.34
2023-02-22T11:09:22.806Z,22.20
2023-02-22T11:12:32.303Z,22.95
2023-02-22T11:15:36.241Z,23.04
2023-02-22T11:18:38.532Z,23.50
2023-02-22T11:21:41.764Z,22.96
2023-02-22T11:24:51.271Z,23.15
2023-02-22T11:27:54.299Z,23.83
2023-02-22T11:30:59.341Z,24.13
2023-02-22T11:34:04.040Z,23.66
2023-02-22T11:37:37.023Z,22.88
2023-02-22T11:40:40.385Z,23.37
2023-02-22T11:43:48.140Z,22.25
2023-02-22T11:46:52.177Z,21.47
2023-02-22T11:49:54.688Z,22.24
2023-02-22T11:53:12.032Z,22.56
2023-02-22T11:56:37.770Z,23.27
2023-02-22T11:59:41.092Z,23.58
2023-02-22T12:03:33.552Z,24.18
2023-02-22T12:06:53.848Z,23.87
2023-02-22T12:10:23.077Z,24.87
2023-02-22T12:13:44.529Z,25.29
2023-02-22T12:16:49.768Z,25.36
2023-02-22T12:19:59.755Z,25.42
2023-02-22T12:23:34.040Z,23.71
2023-02-22T12:26:41.500Z,23.21
2023-02-22T12:29:50.789Z,22.77
2023-02-22T12:32:55.546Z,22.40
2023-02-22T12:36:00.946Z,23.53
2023-02-22T12:39:29.749Z,23.02
2023-02-22T12:42:57.942Z,23.57
2023-02-22T12:46:16.351Z,23.17
2023-02-22T12:49:30.886Z,23.29
2023-02-22T12:52:37.735Z,22.79
2023-02-22T12:55:48.026Z,23.29
2023-02-22T12:58:54.887Z,21.78
2023-02-22T13:02:04.372Z,21.63
2023-02-22T13:05:14.161Z,21.01
2023-02-22T13:08:38.785Z,21.34
2023-02-22T13:11:53.057Z,21.86
2023-02-22T13:15:11.062Z,21.32
2023-02-22T13:18:19.152Z,22.14
2023-02-22T13:21:36.567Z,22.45
2023-02-22T13:24:53.081Z,22.51
2023-02-22T13:28:10.505Z,22.04
2023-02-22T13:31:39.321Z,21.85
2023-02-22T13:34:58.243Z,22.03
2023-02-22T13:38:35.596Z,21.45
2023-02-22T13:41:46.521Z,21.39
2023-02-22T13:45:08.123Z,21.80
2023-02-22T13:48:47.917Z,21.47
2023-02-22T13:51:59.070Z,21.67
2023-02-22T13:55:11.449Z,21.90
2023-02-22T13:58:14.462Z,21.75
2023-02-22T14:01:43.822Z,20.99
2023-02-22T14:04:46.310Z,20.05
2023-02-22T14:07:49.686Z,19.58
2023-02-22T14:10:56.531Z,19.60
2023-02-22T14:14:19.407Z,20.54
2023-02-22T14:17:25.668Z,20.33
2023-02-22T14:20:37.064Z,20.20
2023-02-22T14:23:45.279Z,20.09
2023-02-22T14:27:04.664Z,20.10
2023-02-22T14:30:07.991Z,20.07
2023-02-22T14:33:47.866Z,20.22
2023-02-22T14:37:07.883Z,20.79
2023-02-22T14:40:27.988Z,20.62
2023-02-22T14:43:30.897Z,20.51
2023-02-22T14:46:40.767Z,20.73
2023-02-22T14:49:48.222Z,20.32
2023-02-22T14:53:23.004Z,19.00
2023-02-22T14:56:36.426Z,18.61
2023-02-22T14:59:54.533Z,18.87
2023-02-22T15:03:00.977Z,17.99
2023-02-22T15:06:06.669Z,17.83
2023-02-22T15:09:16.143Z,17.64
2023-02-22T15:12:31.302Z,17.17
2023-02-22T15:15:33.769Z,16.77
2023-02-22T15:18:43.404Z,16.44
2023-02-22T15:21:46.798Z,16.10
2023-02-22T15:25:00.511Z,16.17
2023-02-22T15:28:05.519Z,15.95
2023-02-22T15:31:27.726Z,15.73
2023-02-22T15:34:32.328Z,15.56
2023-02-22T15:37:35.052Z,15.56
2023-02-22T15:40:43.286Z,15.44
2023-02-22T15:43:45.821Z,15.32
2023-02-22T15:46:48.337Z,15.24
2023-02-22T15:50:16.151Z,15.21
2023-02-22T15:53:40.390Z,15.08
2023-02-22T15:56:55.675Z,14.99
2023-02-22T15:59:58.565Z,14.94
2023-02-22T16:03:01.140Z,14.77
2023-02-22T16:06:12.139Z,14.65
2023-02-22T16:09:23.281Z,14.54
2023-02-22T16:12:28.320Z,14.43
2023-02-22T16:15:36.956Z,14.34
2023-02-22T16:18:40.046Z,14.20
2023-02-22T16:22:03.675Z,14.09
2023-02-22T16:25:18.916Z,14.01
2023-02-22T16:28:36.669Z,13.94
2023-02-22T16:31:41.709Z,13.91
2023-02-22T16:34:45.702Z,13.81
2023-02-22T16:37:57.458Z,13.70
2023-02-22T16:41:01.144Z,13.63
2023-02-22T16:44:08.416Z,13.40
2023-02-22T16:47:13.299Z,13.24
2023-02-22T16:50:17.969Z,13.13
2023-02-22T16:53:24.891Z,12.88
2023-02-22T16:56:34.444Z,12.69
2023-02-22T16:59:40.795Z,12.45
2023-02-22T17:02:45.939Z,12.40
2023-02-22T17:05:50.614Z,12.22
2023-02-22T17:08:54.762Z,12.08
2023-02-22T17:12:00.917Z,12.06
2023-02-22T17:15:05.543Z,12.01
2023-02-22T17:18:23.513Z,11.92
2023-02-22T17:21:28.277Z,11.90
2023-02-22T17:24:34.687Z,11.92
2023-02-22T17:27:38.968Z,11.76
2023-02-22T17:30:44.692Z,11.68
2023-02-22T17:33:48.256Z,11.67
2023-02-22T17:36:51.373Z,11.65
2023-02-22T17:39:56.132Z,11.46
2023-02-22T17:42:59.566Z,11.24
2023-02-22T17:46:08.159Z,11.11
2023-02-22T17:49:14.086Z,10.98
2023-02-22T17:52:17.985Z,10.76
2023-02-22T17:55:22.639Z,10.70
2023-02-22T17:58:31.284Z,10.68
2023-02-22T18:01:34.582Z,10.58
2023-02-22T18:04:39.987Z,10.56
2023-02-22T18:07:44.673Z,10.54
2023-02-22T18:10:47.825Z,10.55
2023-02-22T18:13:53.214Z,10.46
2023-02-22T18:16:56.481Z,10.27
2023-02-22T18:20:01.250Z,10.26
2023-02-22T18:23:12.069Z,10.22
2023-02-22T18:26:18.755Z,10.10
2023-02-22T18:29:22.166Z,10.09
2023-02-22T18:32:30.996Z,9.89
2023-02-22T18:35:35.802Z,9.69
2023-02-22T18:38:44.059Z,9.49
2023-02-22T18:41:52.245Z,9.36
2023-02-22T18:45:01.425Z,9.25
2023-02-22T18:48:05.160Z,9.19
2023-02-22T18:51:11.659Z,9.10
2023-02-22T18:54:15.186Z,9.05
2023-02-22T18:57:23.281Z,8.92
2023-02-22T19:00:30.043Z,8.81
2023-02-22T19:03:39.531Z,8.76
2023-02-22T19:06:45.832Z,8.78
2023-02-22T19:09:51.555Z,8.75
2023-02-22T19:12:55.769Z,8.66
2023-02-22T19:15:59.569Z,8.71
2023-02-22T19:19:07.869Z,8.72
2023-02-22T19:22:16.510Z,8.57
2023-02-22T19:25:23.060Z,8.61
2023-02-22T19:28:34.520Z,8.52
2023-02-22T19:31:40.887Z,8.57
2023-02-22T19:34:46.166Z,8.66
2023-02-22T19:37:54.589Z,8.71
2023-02-22T19:41:00.322Z,8.69
2023-02-22T19:44:05.370Z,8.57
2023-02-22T19:47:10.756Z,8.46
2023-02-22T19:50:16.646Z,8.35
2023-02-22T19:53:21.361Z,8.15
2023-02-22T19:56:29.783Z,8.15
2023-02-22T19:59:34.171Z,8.09
2023-02-22T20:02:40.350Z,8.01
2023-02-22T20:05:54.458Z,8.00
2023-02-22T20:08:58.912Z,7.91
2023-02-22T20:12:06.246Z,7.88
2023-02-22T20:15:12.777Z,7.84
2023-02-22T20:18:18.002Z,7.78
2023-02-22T20:21:32.006Z,7.71
2023-02-22T20:24:37.131Z,7.65
2023-02-22T20:27:41.346Z,7.59
2023-02-22T20:30:45.474Z,7.51
2023-02-22T20:33:53.928Z,7.47
2023-02-22T20:36:58.875Z,7.44
2023-02-22T20:40:05.522Z,7.42
2023-02-22T20:43:10.452Z,7.36
2023-02-22T20:46:14.428Z,7.33
2023-02-22T20:49:23.781Z,7.31
2023-02-22T20:52:28.472Z,7.24
2023-02-22T20:55:35.105Z,7.21
2023-02-22T20:58:38.699Z,7.19
2023-02-22T21:01:42.979Z,7.20
2023-02-22T21:04:46.866Z,7.18
2023-02-22T21:07:50.624Z,7.14
2023-02-22T21:10:56.475Z,7.10
2023-02-22T21:14:01.232Z,7.08
2023-02-22T21:17:05.416Z,7.11
2023-02-22T21:20:13.581Z,7.07
2023-02-22T21:23:18.365Z,7.02
2023-02-22T21:26:24.880Z,6.96
2023-02-22T21:29:30.008Z,6.96
2023-02-22T21:36:34.215Z,6.97
2023-02-22T21:39:37.805Z,6.92
2023-02-22T21:45:54.347Z,6.92
2023-02-22T21:48:58.950Z,6.89
2023-02-22T21:52:04.984Z,6.84
2023-02-22T21:55:08.067Z,6.81
2023-02-22T21:58:10.519Z,6.68
2023-02-22T22:01:17.977Z,6.65
2023-02-22T22:04:23.002Z,6.56
2023-02-22T22:07:25.233Z,6.51
2023-02-22T22:10:33.286Z,6.42
2023-02-22T22:17:00.295Z,6.36
2023-02-22T22:20:05.478Z,6.38
2023-02-22T22:23:08.021Z,6.33
2023-02-22T22:26:13.570Z,6.11
2023-02-22T22:29:15.747Z,6.18
2023-02-22T22:32:20.932Z,6.17
2023-02-22T22:35:23.463Z,6.15
2023-02-22T22:38:29.939Z,6.09
2023-02-22T22:41:34.064Z,6.05
2023-02-22T22:44:42.278Z,6.04
2023-02-22T22:47:46.298Z,6.01
2023-02-22T22:50:57.133Z,5.97
2023-02-22T22:54:00.311Z,5.94
2023-02-22T22:57:04.109Z,5.90
2023-02-22T23:00:29.899Z,5.86
2023-02-22T23:03:33.871Z,5.83
2023-02-22T23:06:47.964Z,5.81
2023-02-22T23:09:50.083Z,5.76
2023-02-22T23:12:53.904Z,5.72
2023-02-22T23:15:56.075Z,5.71
2023-02-22T23:18:59.199Z,5.68
2023-02-22T23:22:01.927Z,5.60
2023-02-22T23:25:05.874Z,5.59
2023-02-22T23:28:14.780Z,5.56
2023-02-22T23:31:18.065Z,5.58
2023-02-22T23:34:23.296Z,5.54
2023-02-22T23:37:25.337Z,5.48
2023-02-22T23:40:29.200Z,5.47
2023-02-22T23:43:34.869Z,5.37
2023-02-22T23:46:41.847Z,5.37
2023-02-22T23:49:49.423Z,5.30
2023-02-22T23:52:59.730Z,5.25
2023-02-22T23:56:01.834Z,5.24
2023-02-22T23:59:11.205Z,5.21
